sensor_id;sensor_type;location;lat;lon;timestamp;pressure;altitude;pressure_sealevel;temperature;humidity
6136;BME280;24008;42.664;23.372;2022-07-04T00:00:47;94959.16;;;20.82;62.58
6136;BME280;24008;42.664;23.372;2022-07-04T00:03:14;95026.81;;;21.22;62.75
6136;BME280;24008;42.664;23.372;2022-07-04T00:05:41;94820.72;;;19.82;62.75
6136;BME280;24008;42.664;23.372;2022-07-04T00:08:08;95055.13;;;21.04;63.45
6136;BME280;24008;42.664;23.372;2022-07-04T00:10:37;95041.09;;;20.92;63.34
6136;BME280;24008;42.664;23.372;2022-07-04T00:13:04;95040.06;;;20.79;63.60
6136;BME280;24008;42.664;23.372;2022-07-04T00:15:32;95032.69;;;20.76;64.01
6136;BME280;24008;42.664;23.372;2022-07-04T00:18:03;94953.59;;;20.25;64.20
6136;BME280;24008;42.664;23.372;2022-07-04T00:20:30;95025.44;;;20.65;64.35
6136;BME280;24008;42.664;23.372;2022-07-04T00:22:57;95028.66;;;20.61;64.77
6136;BME280;24008;42.664;23.372;2022-07-04T00:25:25;95023.63;;;20.59;64.84
6136;BME280;24008;42.664;23.372;2022-07-04T00:27:54;95026.22;;;20.53;65.22
6136;BME280;24008;42.664;23.372;2022-07-04T00:30:21;94967.69;;;20.09;64.98
6136;BME280;24008;42.664;23.372;2022-07-04T00:32:51;94974.31;;;20.11;64.39
6136;BME280;24008;42.664;23.372;2022-07-04T00:35:18;95013.38;;;20.38;63.80
6136;BME280;24008;42.664;23.372;2022-07-04T00:37:48;94875.38;;;19.46;63.45
6136;BME280;24008;42.664;23.372;2022-07-04T00:40:15;95038.56;;;20.44;62.85
6136;BME280;24008;42.664;23.372;2022-07-04T00:42:42;94921.88;;;19.82;61.83
6136;BME280;24008;42.664;23.372;2022-07-04T00:45:16;95009.84;;;20.52;62.38
6136;BME280;24008;42.664;23.372;2022-07-04T00:47:44;95012.81;;;20.49;62.62
6136;BME280;24008;42.664;23.372;2022-07-04T00:50:13;95012.81;;;20.49;62.50
6136;BME280;24008;42.664;23.372;2022-07-04T00:52:41;95027.00;;;20.53;62.70
6136;BME280;24008;42.664;23.372;2022-07-04T00:55:09;95021.25;;;20.58;61.84
6136;BME280;24008;42.664;23.372;2022-07-04T00:57:36;94991.44;;;20.40;61.02
6136;BME280;24008;42.664;23.372;2022-07-04T01:00:04;94832.47;;;19.36;61.37
6136;BME280;24008;42.664;23.372;2022-07-04T01:02:33;95010.03;;;20.57;61.47
6136;BME280;24008;42.664;23.372;2022-07-04T01:05:00;94955.34;;;20.18;60.95
6136;BME280;24008;42.664;23.372;2022-07-04T01:07:27;95007.03;;;20.54;60.82
6136;BME280;24008;42.664;23.372;2022-07-04T01:09:54;94969.78;;;20.27;60.57
6136;BME280;24008;42.664;23.372;2022-07-04T01:12:26;95005.22;;;20.54;60.68
6136;BME280;24008;42.664;23.372;2022-07-04T01:14:53;95013.25;;;20.53;59.77
6136;BME280;24008;42.664;23.372;2022-07-04T01:17:20;95001.81;;;20.47;59.56
6136;BME280;24008;42.664;23.372;2022-07-04T01:19:48;94999.63;;;20.44;59.38
6136;BME280;24008;42.664;23.372;2022-07-04T01:22:17;94846.28;;;19.43;59.02
6136;BME280;24008;42.664;23.372;2022-07-04T01:24:46;95012.78;;;20.36;59.00
6136;BME280;24008;42.664;23.372;2022-07-04T01:27:13;95011.91;;;20.29;59.47
6136;BME280;24008;42.664;23.372;2022-07-04T01:29:40;95012.06;;;20.21;59.82
6136;BME280;24008;42.664;23.372;2022-07-04T01:32:08;94959.84;;;19.89;59.96
6136;BME280;24008;42.664;23.372;2022-07-04T01:34:35;94838.38;;;19.17;59.47
6136;BME280;24008;42.664;23.372;2022-07-04T01:37:04;95006.06;;;20.13;59.89
6136;BME280;24008;42.664;23.372;2022-07-04T01:39:32;94982.41;;;19.95;59.75
6136;BME280;24008;42.664;23.372;2022-07-04T01:41:59;95012.00;;;20.07;59.48
6136;BME280;24008;42.664;23.372;2022-07-04T01:44:26;95015.75;;;19.98;59.01
6136;BME280;24008;42.664;23.372;2022-07-04T01:46:53;95013.94;;;19.92;59.51
6136;BME280;24008;42.664;23.372;2022-07-04T01:49:20;94957.47;;;19.60;59.12
6136;BME280;24008;42.664;23.372;2022-07-04T01:51:48;95013.09;;;19.85;59.27
6136;BME280;24008;42.664;23.372;2022-07-04T01:54:16;94853.75;;;18.91;58.78
6136;BME280;24008;42.664;23.372;2022-07-04T01:56:45;95017.91;;;19.88;58.04
6136;BME280;24008;42.664;23.372;2022-07-04T01:59:12;95014.88;;;19.85;58.55
6136;BME280;24008;42.664;23.372;2022-07-04T02:01:38;94955.03;;;19.52;58.05
6136;BME280;24008;42.664;23.372;2022-07-04T02:04:06;94881.28;;;18.98;58.19
6136;BME280;24008;42.664;23.372;2022-07-04T02:06:33;95017.03;;;19.81;58.27
6136;BME280;24008;42.664;23.372;2022-07-04T02:09:00;95011.06;;;19.81;58.40
6136;BME280;24008;42.664;23.372;2022-07-04T02:11:45;95004.47;;;19.78;58.07
6136;BME280;24008;42.664;23.372;2022-07-04T02:14:30;95010.41;;;19.72;58.19
6136;BME280;24008;42.664;23.372;2022-07-04T02:16:57;94971.69;;;19.42;57.89
6136;BME280;24008;42.664;23.372;2022-07-04T02:19:25;94906.78;;;18.95;57.26
6136;BME280;24008;42.664;23.372;2022-07-04T02:21:51;94896.78;;;18.92;57.11
6136;BME280;24008;42.664;23.372;2022-07-04T02:24:18;94874.72;;;18.75;56.83
6136;BME280;24008;42.664;23.372;2022-07-04T02:26:47;94956.06;;;19.29;56.14
6136;BME280;24008;42.664;23.372;2022-07-04T02:29:15;95019.78;;;19.73;56.25
6136;BME280;24008;42.664;23.372;2022-07-04T02:31:42;95027.56;;;19.73;56.38
6136;BME280;24008;42.664;23.372;2022-07-04T02:34:10;95028.56;;;19.72;57.17
6136;BME280;24008;42.664;23.372;2022-07-04T02:36:37;94988.38;;;19.55;56.67
6136;BME280;24008;42.664;23.372;2022-07-04T02:39:05;95018.25;;;19.78;56.65
6136;BME280;24008;42.664;23.372;2022-07-04T02:41:32;95026.63;;;19.81;55.56
6136;BME280;24008;42.664;23.372;2022-07-04T02:44:00;94912.91;;;19.15;55.97
6136;BME280;24008;42.664;23.372;2022-07-04T02:46:28;94999.19;;;19.65;55.03
6136;BME280;24008;42.664;23.372;2022-07-04T02:48:57;95025.16;;;19.71;56.01
6136;BME280;24008;42.664;23.372;2022-07-04T02:51:23;94954.53;;;19.14;55.71
6136;BME280;24008;42.664;23.372;2022-07-04T02:53:50;95025.31;;;19.63;56.04
6136;BME280;24008;42.664;23.372;2022-07-04T02:56:17;94985.19;;;19.31;55.87
6136;BME280;24008;42.664;23.372;2022-07-04T02:58:44;95030.44;;;19.57;55.96
6136;BME280;24008;42.664;23.372;2022-07-04T03:01:13;95028.25;;;19.54;56.15
6136;BME280;24008;42.664;23.372;2022-07-04T03:03:40;94952.19;;;18.97;56.27
6136;BME280;24008;42.664;23.372;2022-07-04T03:06:07;95039.19;;;19.49;55.99
6136;BME280;24008;42.664;23.372;2022-07-04T03:08:34;95064.63;;;19.46;56.16
6136;BME280;24008;42.664;23.372;2022-07-04T03:11:02;94924.72;;;18.75;56.54
6136;BME280;24008;42.664;23.372;2022-07-04T03:13:29;95001.66;;;19.24;56.08
6136;BME280;24008;42.664;23.372;2022-07-04T03:15:56;95045.78;;;19.52;56.34
6136;BME280;24008;42.664;23.372;2022-07-04T03:18:24;95025.97;;;19.44;56.11
6136;BME280;24008;42.664;23.372;2022-07-04T03:20:51;95005.41;;;19.21;56.20
6136;BME280;24008;42.664;23.372;2022-07-04T03:23:18;95051.63;;;19.60;56.40
6136;BME280;24008;42.664;23.372;2022-07-04T03:25:45;95013.19;;;19.42;57.14
6136;BME280;24008;42.664;23.372;2022-07-04T03:28:12;95048.47;;;19.65;57.01
6136;BME280;24008;42.664;23.372;2022-07-04T03:30:39;95040.31;;;19.68;56.71
6136;BME280;24008;42.664;23.372;2022-07-04T03:33:06;94996.75;;;19.35;57.47
6136;BME280;24008;42.664;23.372;2022-07-04T03:35:35;94919.09;;;18.93;57.78
6136;BME280;24008;42.664;23.372;2022-07-04T03:38:02;94899.09;;;18.80;59.11
6136;BME280;24008;42.664;23.372;2022-07-04T03:40:29;95042.69;;;19.69;59.75
6136;BME280;24008;42.664;23.372;2022-07-04T03:42:57;95012.44;;;19.49;59.88
6136;BME280;24008;42.664;23.372;2022-07-04T03:45:25;95041.09;;;19.68;60.41
6136;BME280;24008;42.664;23.372;2022-07-04T03:47:52;95042.13;;;19.67;60.51
6136;BME280;24008;42.664;23.372;2022-07-04T03:50:19;95014.06;;;19.50;61.27
6136;BME280;24008;42.664;23.372;2022-07-04T03:52:47;94990.84;;;19.41;62.68
6136;BME280;24008;42.664;23.372;2022-07-04T03:55:14;95033.31;;;19.68;63.03
6136;BME280;24008;42.664;23.372;2022-07-04T03:57:41;95029.19;;;19.74;63.31
6136;BME280;24008;42.664;23.372;2022-07-04T04:00:09;95036.59;;;19.77;63.92
6136;BME280;24008;42.664;23.372;2022-07-04T04:02:37;94990.78;;;19.35;65.19
6136;BME280;24008;42.664;23.372;2022-07-04T04:05:05;94913.25;;;18.84;66.79
6136;BME280;24008;42.664;23.372;2022-07-04T04:07:51;94956.75;;;19.17;66.81
6136;BME280;24008;42.664;23.372;2022-07-04T04:10:19;95036.53;;;19.70;66.95
6136;BME280;24008;42.664;23.372;2022-07-04T04:12:46;95039.81;;;19.79;67.32
6136;BME280;24008;42.664;23.372;2022-07-04T04:15:12;94883.69;;;19.00;65.70
6136;BME280;24008;42.664;23.372;2022-07-04T04:17:39;95038.19;;;20.12;67.38
6136;BME280;24008;42.664;23.372;2022-07-04T04:20:07;95047.66;;;20.27;66.67
6136;BME280;24008;42.664;23.372;2022-07-04T04:22:35;95047.75;;;20.40;61.76
6136;BME280;24008;42.664;23.372;2022-07-04T04:25:04;95005.72;;;20.30;61.26
6136;BME280;24008;42.664;23.372;2022-07-04T04:27:31;95043.25;;;20.68;60.07
6136;BME280;24008;42.664;23.372;2022-07-04T04:29:58;95045.88;;;20.81;58.80
6136;BME280;24008;42.664;23.372;2022-07-04T04:32:25;94996.75;;;21.00;57.66
6136;BME280;24008;42.664;23.372;2022-07-04T04:34:52;95047.44;;;22.54;54.75
6136;BME280;24008;42.664;23.372;2022-07-04T04:37:19;95045.22;;;23.65;52.01
6136;BME280;24008;42.664;23.372;2022-07-04T04:39:46;94981.53;;;24.27;51.15
6136;BME280;24008;42.664;23.372;2022-07-04T04:42:14;95052.84;;;25.54;47.54
6136;BME280;24008;42.664;23.372;2022-07-04T04:44:41;95050.50;;;26.34;44.32
6136;BME280;24008;42.664;23.372;2022-07-04T04:47:08;95057.69;;;26.79;43.26
6136;BME280;24008;42.664;23.372;2022-07-04T04:49:35;95045.72;;;27.11;42.03
6136;BME280;24008;42.664;23.372;2022-07-04T04:52:02;94911.34;;;26.36;41.68
6136;BME280;24008;42.664;23.372;2022-07-04T04:54:29;94904.22;;;26.48;40.60
6136;BME280;24008;42.664;23.372;2022-07-04T04:56:56;94956.91;;;27.03;40.88
6136;BME280;24008;42.664;23.372;2022-07-04T04:59:24;95050.63;;;27.53;42.20
6136;BME280;24008;42.664;23.372;2022-07-04T05:01:51;95049.63;;;27.87;43.93
6136;BME280;24008;42.664;23.372;2022-07-04T05:04:18;95057.47;;;28.21;41.91
6136;BME280;24008;42.664;23.372;2022-07-04T05:06:45;94948.38;;;26.96;43.38
6136;BME280;24008;42.664;23.372;2022-07-04T05:09:12;94946.47;;;27.08;43.84
6136;BME280;24008;42.664;23.372;2022-07-04T05:11:39;95053.13;;;27.76;43.56
6136;BME280;24008;42.664;23.372;2022-07-04T05:14:06;94891.50;;;26.85;43.19
6136;BME280;24008;42.664;23.372;2022-07-04T05:16:35;95053.75;;;27.83;42.54
6136;BME280;24008;42.664;23.372;2022-07-04T05:19:02;95048.50;;;27.83;41.71
6136;BME280;24008;42.664;23.372;2022-07-04T05:21:29;95042.91;;;27.96;40.82
6136;BME280;24008;42.664;23.372;2022-07-04T05:23:56;94975.59;;;27.57;41.09
6136;BME280;24008;42.664;23.372;2022-07-04T05:26:24;94847.81;;;27.46;40.60
6136;BME280;24008;42.664;23.372;2022-07-04T05:28:51;95052.44;;;28.80;38.81
6136;BME280;24008;42.664;23.372;2022-07-04T05:31:18;95023.56;;;28.85;38.87
6136;BME280;24008;42.664;23.372;2022-07-04T05:33:46;95022.47;;;28.81;38.18
6136;BME280;24008;42.664;23.372;2022-07-04T05:36:13;95015.94;;;29.10;37.15
6136;BME280;24008;42.664;23.372;2022-07-04T05:38:40;95054.84;;;29.62;37.55
6136;BME280;24008;42.664;23.372;2022-07-04T05:41:07;95052.69;;;29.91;37.79
6136;BME280;24008;42.664;23.372;2022-07-04T05:43:34;95055.25;;;30.60;35.31
6136;BME280;24008;42.664;23.372;2022-07-04T05:46:01;95021.56;;;30.25;35.24
6136;BME280;24008;42.664;23.372;2022-07-04T05:48:29;94938.34;;;29.18;35.50
6136;BME280;24008;42.664;23.372;2022-07-04T05:50:57;95009.31;;;30.03;35.76
6136;BME280;24008;42.664;23.372;2022-07-04T05:53:24;95047.31;;;30.60;34.82
6136;BME280;24008;42.664;23.372;2022-07-04T05:55:51;95030.69;;;30.54;34.29
6136;BME280;24008;42.664;23.372;2022-07-04T05:58:17;95049.78;;;30.76;34.14
6136;BME280;24008;42.664;23.372;2022-07-04T06:00:44;95046.81;;;30.68;32.86
6136;BME280;24008;42.664;23.372;2022-07-04T06:03:11;95020.78;;;29.87;34.14
6136;BME280;24008;42.664;23.372;2022-07-04T06:05:38;95004.19;;;30.29;33.84
6136;BME280;24008;42.664;23.372;2022-07-04T06:08:06;95059.34;;;30.98;34.04
6136;BME280;24008;42.664;23.372;2022-07-04T06:10:33;95015.47;;;30.92;31.62
6136;BME280;24008;42.664;23.372;2022-07-04T06:13:00;95019.44;;;30.94;30.77
6136;BME280;24008;42.664;23.372;2022-07-04T06:15:27;95034.63;;;31.80;29.82
6136;BME280;24008;42.664;23.372;2022-07-04T06:17:54;95061.56;;;31.46;31.91
6136;BME280;24008;42.664;23.372;2022-07-04T06:20:21;94991.16;;;30.74;31.19
6136;BME280;24008;42.664;23.372;2022-07-04T06:22:49;95010.56;;;31.16;30.79
6136;BME280;24008;42.664;23.372;2022-07-04T06:25:19;94914.66;;;31.05;30.93
6136;BME280;24008;42.664;23.372;2022-07-04T06:27:48;95053.16;;;31.70;31.89
6136;BME280;24008;42.664;23.372;2022-07-04T06:30:16;95054.13;;;32.14;30.26
6136;BME280;24008;42.664;23.372;2022-07-04T06:32:44;95052.41;;;32.74;28.86
6136;BME280;24008;42.664;23.372;2022-07-04T06:35:11;94958.47;;;31.92;29.70
6136;BME280;24008;42.664;23.372;2022-07-04T06:37:56;95041.97;;;32.98;29.07
6136;BME280;24008;42.664;23.372;2022-07-04T06:40:25;94954.31;;;32.50;28.47
6136;BME280;24008;42.664;23.372;2022-07-04T06:42:53;95050.59;;;33.24;28.61
6136;BME280;24008;42.664;23.372;2022-07-04T06:45:20;94987.00;;;32.20;29.48
6136;BME280;24008;42.664;23.372;2022-07-04T06:47:47;95029.06;;;31.92;30.23
6136;BME280;24008;42.664;23.372;2022-07-04T06:50:14;94890.56;;;31.88;29.90
6136;BME280;24008;42.664;23.372;2022-07-04T06:52:42;95044.75;;;32.73;30.66
6136;BME280;24008;42.664;23.372;2022-07-04T06:55:09;94968.44;;;32.85;28.98
6136;BME280;24008;42.664;23.372;2022-07-04T06:57:37;95047.19;;;32.54;30.86
6136;BME280;24008;42.664;23.372;2022-07-04T07:00:07;95042.41;;;33.15;30.11
6136;BME280;24008;42.664;23.372;2022-07-04T07:02:35;95041.94;;;33.86;29.39
6136;BME280;24008;42.664;23.372;2022-07-04T07:05:02;94944.44;;;32.61;28.82
6136;BME280;24008;42.664;23.372;2022-07-04T07:07:29;95033.63;;;33.30;28.70
6136;BME280;24008;42.664;23.372;2022-07-04T07:09:56;95031.94;;;33.73;28.82
6136;BME280;24008;42.664;23.372;2022-07-04T07:12:23;94808.38;;;31.79;28.85
6136;BME280;24008;42.664;23.372;2022-07-04T07:14:52;95026.09;;;32.98;30.35
6136;BME280;24008;42.664;23.372;2022-07-04T07:17:20;95001.78;;;32.27;30.32
6136;BME280;24008;42.664;23.372;2022-07-04T07:19:47;95024.78;;;32.26;31.31
6136;BME280;24008;42.664;23.372;2022-07-04T07:22:14;95032.41;;;32.43;30.25
6136;BME280;24008;42.664;23.372;2022-07-04T07:24:42;94969.81;;;32.08;30.88
6136;BME280;24008;42.664;23.372;2022-07-04T07:27:09;95017.47;;;33.21;31.09
6136;BME280;24008;42.664;23.372;2022-07-04T07:29:37;95015.34;;;33.29;29.80
6136;BME280;24008;42.664;23.372;2022-07-04T07:32:06;94993.66;;;32.77;30.30
6136;BME280;24008;42.664;23.372;2022-07-04T07:34:34;94980.56;;;32.42;31.69
6136;BME280;24008;42.664;23.372;2022-07-04T07:37:01;94923.78;;;32.19;31.27
6136;BME280;24008;42.664;23.372;2022-07-04T07:39:28;94991.72;;;32.93;31.24
6136;BME280;24008;42.664;23.372;2022-07-04T07:41:55;94978.66;;;33.07;29.35
6136;BME280;24008;42.664;23.372;2022-07-04T07:44:22;95011.72;;;33.53;29.33
6136;BME280;24008;42.664;23.372;2022-07-04T07:46:49;95006.94;;;33.50;29.45
6136;BME280;24008;42.664;23.372;2022-07-04T07:49:17;95007.72;;;33.56;30.71
6136;BME280;24008;42.664;23.372;2022-07-04T07:51:44;94994.59;;;33.36;31.00
6136;BME280;24008;42.664;23.372;2022-07-04T07:54:11;94970.69;;;33.80;28.52
6136;BME280;24008;42.664;23.372;2022-07-04T07:56:39;94975.44;;;33.10;30.65
6136;BME280;24008;42.664;23.372;2022-07-04T07:59:06;95002.25;;;33.42;31.98
6136;BME280;24008;42.664;23.372;2022-07-04T08:01:32;94922.81;;;32.49;30.10
6136;BME280;24008;42.664;23.372;2022-07-04T08:04:02;94982.56;;;33.53;29.80
6136;BME280;24008;42.664;23.372;2022-07-04T08:06:48;95005.34;;;34.12;31.32
6136;BME280;24008;42.664;23.372;2022-07-04T08:09:15;94963.06;;;33.68;29.42
6136;BME280;24008;42.664;23.372;2022-07-04T08:11:42;95007.91;;;33.65;30.22
6136;BME280;24008;42.664;23.372;2022-07-04T08:14:09;95010.97;;;34.35;29.87
6136;BME280;24008;42.664;23.372;2022-07-04T08:16:36;95006.50;;;34.96;28.93
6136;BME280;24008;42.664;23.372;2022-07-04T08:19:03;95006.06;;;35.27;28.09
6136;BME280;24008;42.664;23.372;2022-07-04T08:21:30;94907.41;;;34.40;28.79
6136;BME280;24008;42.664;23.372;2022-07-04T08:23:59;95003.31;;;34.94;29.39
6136;BME280;24008;42.664;23.372;2022-07-04T08:26:26;95010.00;;;35.11;30.17
6136;BME280;24008;42.664;23.372;2022-07-04T08:28:53;94999.28;;;34.78;29.94
6136;BME280;24008;42.664;23.372;2022-07-04T08:31:23;94970.06;;;35.16;29.73
6136;BME280;24008;42.664;23.372;2022-07-04T08:33:50;94989.75;;;35.85;28.58
6136;BME280;24008;42.664;23.372;2022-07-04T08:36:18;94739.13;;;34.41;29.02
6136;BME280;24008;42.664;23.372;2022-07-04T08:38:45;94984.09;;;36.46;27.51
6136;BME280;24008;42.664;23.372;2022-07-04T08:41:16;94985.22;;;36.67;27.36
6136;BME280;24008;42.664;23.372;2022-07-04T08:43:47;94930.63;;;36.42;27.08
6136;BME280;24008;42.664;23.372;2022-07-04T08:46:15;94752.13;;;35.34;27.98
6136;BME280;24008;42.664;23.372;2022-07-04T08:48:50;94878.19;;;35.74;27.71
6136;BME280;24008;42.664;23.372;2022-07-04T08:51:24;94878.66;;;35.49;28.20
6136;BME280;24008;42.664;23.372;2022-07-04T08:53:56;94933.66;;;35.35;29.29
6136;BME280;24008;42.664;23.372;2022-07-04T08:56:27;94977.03;;;35.95;28.21
6136;BME280;24008;42.664;23.372;2022-07-04T08:59:14;94941.25;;;35.88;27.94
6136;BME280;24008;42.664;23.372;2022-07-04T09:01:42;94983.59;;;36.30;28.19
6136;BME280;24008;42.664;23.372;2022-07-04T09:04:10;94901.41;;;35.55;28.65
6136;BME280;24008;42.664;23.372;2022-07-04T09:06:37;94990.09;;;35.78;29.38
6136;BME280;24008;42.664;23.372;2022-07-04T09:09:05;94949.06;;;35.84;28.80
6136;BME280;24008;42.664;23.372;2022-07-04T09:11:35;94958.06;;;36.29;29.50
6136;BME280;24008;42.664;23.372;2022-07-04T09:14:02;94932.09;;;36.07;29.05
6136;BME280;24008;42.664;23.372;2022-07-04T09:16:29;94856.13;;;35.60;27.97
6136;BME280;24008;42.664;23.372;2022-07-04T09:18:56;94958.63;;;36.54;27.91
6136;BME280;24008;42.664;23.372;2022-07-04T09:21:42;94929.53;;;36.16;27.56
6136;BME280;24008;42.664;23.372;2022-07-04T09:24:09;94962.78;;;36.46;27.77
6136;BME280;24008;42.664;23.372;2022-07-04T09:26:40;94948.75;;;36.13;28.61
6136;BME280;24008;42.664;23.372;2022-07-04T09:29:07;94884.25;;;35.34;27.74
6136;BME280;24008;42.664;23.372;2022-07-04T09:31:34;94973.13;;;35.60;28.46
6136;BME280;24008;42.664;23.372;2022-07-04T09:34:04;94741.56;;;33.81;28.66
6136;BME280;24008;42.664;23.372;2022-07-04T09:36:33;94974.19;;;35.59;28.09
6136;BME280;24008;42.664;23.372;2022-07-04T09:39:11;94925.66;;;35.67;28.36
6136;BME280;24008;42.664;23.372;2022-07-04T09:41:56;94841.13;;;35.37;27.45
6136;BME280;24008;42.664;23.372;2022-07-04T09:44:26;94888.03;;;35.88;27.67
6136;BME280;24008;42.664;23.372;2022-07-04T09:46:54;94950.31;;;36.14;28.07
6136;BME280;24008;42.664;23.372;2022-07-04T09:49:22;94842.66;;;35.24;28.87
6136;BME280;24008;42.664;23.372;2022-07-04T09:51:52;94958.56;;;35.71;28.95
6136;BME280;24008;42.664;23.372;2022-07-04T09:54:25;94957.97;;;35.74;29.42
6136;BME280;24008;42.664;23.372;2022-07-04T09:56:57;94958.56;;;35.71;28.85
6136;BME280;24008;42.664;23.372;2022-07-04T09:59:25;94877.06;;;35.16;29.17
6136;BME280;24008;42.664;23.372;2022-07-04T10:02:09;94870.69;;;35.49;28.58
6136;BME280;24008;42.664;23.372;2022-07-04T10:04:44;94828.31;;;35.39;28.25
6136;BME280;24008;42.664;23.372;2022-07-04T10:07:12;94905.19;;;35.82;29.67
6136;BME280;24008;42.664;23.372;2022-07-04T10:09:56;94847.16;;;35.10;30.05
6136;BME280;24008;42.664;23.372;2022-07-04T10:12:26;94949.56;;;36.27;29.39
6136;BME280;24008;42.664;23.372;2022-07-04T10:14:54;94950.28;;;35.73;28.68
6136;BME280;24008;42.664;23.372;2022-07-04T10:17:21;94890.56;;;35.52;29.41
6136;BME280;24008;42.664;23.372;2022-07-04T10:19:49;94942.78;;;35.61;31.38
6136;BME280;24008;42.664;23.372;2022-07-04T10:22:18;94910.63;;;35.44;29.87
6136;BME280;24008;42.664;23.372;2022-07-04T10:24:46;94946.53;;;36.34;28.48
6136;BME280;24008;42.664;23.372;2022-07-04T10:27:17;94850.00;;;36.28;28.11
6136;BME280;24008;42.664;23.372;2022-07-04T10:29:45;94936.44;;;36.44;28.35
6136;BME280;24008;42.664;23.372;2022-07-04T10:32:13;94936.97;;;36.83;28.60
6136;BME280;24008;42.664;23.372;2022-07-04T10:34:40;94822.03;;;35.90;29.60
6136;BME280;24008;42.664;23.372;2022-07-04T10:37:08;94932.53;;;36.78;28.89
6136;BME280;24008;42.664;23.372;2022-07-04T10:39:35;94840.94;;;36.29;28.22
6136;BME280;24008;42.664;23.372;2022-07-04T10:42:05;94874.03;;;36.37;28.23
6136;BME280;24008;42.664;23.372;2022-07-04T10:44:33;94950.50;;;35.77;28.96
6136;BME280;24008;42.664;23.372;2022-07-04T10:47:04;94798.69;;;34.11;30.50
6136;BME280;24008;42.664;23.372;2022-07-04T10:49:32;94833.78;;;34.64;29.53
6136;BME280;24008;42.664;23.372;2022-07-04T10:52:09;94813.63;;;34.44;29.77
6136;BME280;24008;42.664;23.372;2022-07-04T10:54:38;94787.31;;;33.91;30.78
6136;BME280;24008;42.664;23.372;2022-07-04T10:57:13;94917.34;;;33.81;32.21
6136;BME280;24008;42.664;23.372;2022-07-04T10:59:42;94918.94;;;33.53;32.61
6136;BME280;24008;42.664;23.372;2022-07-04T11:02:29;94848.31;;;32.32;33.45
6136;BME280;24008;42.664;23.372;2022-07-04T11:04:58;94825.69;;;32.10;34.36
6136;BME280;24008;42.664;23.372;2022-07-04T11:07:55;94906.91;;;32.59;35.42
6136;BME280;24008;42.664;23.372;2022-07-04T11:10:23;94908.00;;;32.53;34.91
6136;BME280;24008;42.664;23.372;2022-07-04T11:13:11;94901.22;;;32.32;34.30
6136;BME280;24008;42.664;23.372;2022-07-04T11:16:01;94900.06;;;31.83;35.37
6136;BME280;24008;42.664;23.372;2022-07-04T11:18:30;94858.63;;;31.54;36.01
6136;BME280;24008;42.664;23.372;2022-07-04T11:20:57;94875.00;;;31.66;35.97
6136;BME280;24008;42.664;23.372;2022-07-04T11:23:23;94900.09;;;31.78;35.42
6136;BME280;24008;42.664;23.372;2022-07-04T11:25:51;94906.16;;;31.79;36.01
6136;BME280;24008;42.664;23.372;2022-07-04T11:28:21;94817.00;;;31.10;36.23
6136;BME280;24008;42.664;23.372;2022-07-04T11:30:49;94902.00;;;31.47;36.31
6136;BME280;24008;42.664;23.372;2022-07-04T11:33:21;94862.91;;;30.94;37.06
6136;BME280;24008;42.664;23.372;2022-07-04T11:36:04;94894.91;;;31.12;37.67
6136;BME280;24008;42.664;23.372;2022-07-04T11:38:45;94839.69;;;30.75;37.92
6136;BME280;24008;42.664;23.372;2022-07-04T11:41:13;94895.66;;;30.98;37.26
6136;BME280;24008;42.664;23.372;2022-07-04T11:43:54;94897.50;;;31.07;37.92
6136;BME280;24008;42.664;23.372;2022-07-04T11:46:38;94885.34;;;31.32;37.76
6136;BME280;24008;42.664;23.372;2022-07-04T11:49:09;94882.94;;;31.56;37.27
6136;BME280;24008;42.664;23.372;2022-07-04T11:51:41;94885.06;;;31.59;37.51
6136;BME280;24008;42.664;23.372;2022-07-04T11:54:08;94886.69;;;31.29;37.56
6136;BME280;24008;42.664;23.372;2022-07-04T11:56:35;94877.69;;;30.95;38.00
6136;BME280;24008;42.664;23.372;2022-07-04T11:59:10;94861.63;;;30.91;38.19
6136;BME280;24008;42.664;23.372;2022-07-04T12:01:37;94868.19;;;30.94;37.69
6136;BME280;24008;42.664;23.372;2022-07-04T12:04:12;94858.19;;;31.11;38.50
6136;BME280;24008;42.664;23.372;2022-07-04T12:06:41;94836.00;;;31.02;37.82
6136;BME280;24008;42.664;23.372;2022-07-04T12:09:08;94829.66;;;31.18;37.99
6136;BME280;24008;42.664;23.372;2022-07-04T12:11:51;94840.22;;;31.23;38.23
6136;BME280;24008;42.664;23.372;2022-07-04T12:14:18;94823.31;;;31.04;37.96
6136;BME280;24008;42.664;23.372;2022-07-04T12:16:45;94856.31;;;31.17;38.37
6136;BME280;24008;42.664;23.372;2022-07-04T12:19:13;94853.97;;;31.25;38.34
6136;BME280;24008;42.664;23.372;2022-07-04T12:21:43;94848.06;;;31.54;37.66
6136;BME280;24008;42.664;23.372;2022-07-04T12:24:10;94852.81;;;31.72;37.75
6136;BME280;24008;42.664;23.372;2022-07-04T12:26:46;94735.69;;;30.92;37.64
6136;BME280;24008;42.664;23.372;2022-07-04T12:29:21;94796.63;;;31.31;38.06
6136;BME280;24008;42.664;23.372;2022-07-04T12:31:51;94832.72;;;31.56;38.17
6136;BME280;24008;42.664;23.372;2022-07-04T12:34:19;94839.13;;;31.34;38.56
6136;BME280;24008;42.664;23.372;2022-07-04T12:36:52;94831.50;;;31.23;38.30
6136;BME280;24008;42.664;23.372;2022-07-04T12:39:34;94773.72;;;30.86;38.76
6136;BME280;24008;42.664;23.372;2022-07-04T12:42:10;94828.56;;;31.34;39.34
6136;BME280;24008;42.664;23.372;2022-07-04T12:44:38;94693.78;;;30.50;37.88
6136;BME280;24008;42.664;23.372;2022-07-04T12:47:06;94837.75;;;31.57;37.94
6136;BME280;24008;42.664;23.372;2022-07-04T12:49:34;94829.59;;;31.64;37.91
6136;BME280;24008;42.664;23.372;2022-07-04T12:52:08;94823.22;;;31.55;38.48
6136;BME280;24008;42.664;23.372;2022-07-04T12:54:36;94836.00;;;31.12;38.52
6136;BME280;24008;42.664;23.372;2022-07-04T12:57:09;94212.50;;;26.83;39.51
6136;BME280;24008;42.664;23.372;2022-07-04T12:59:37;94837.06;;;30.75;39.82
6136;BME280;24008;42.664;23.372;2022-07-04T13:02:04;94825.44;;;30.92;39.37
6136;BME280;24008;42.664;23.372;2022-07-04T13:04:31;94827.03;;;31.03;40.15
6136;BME280;24008;42.664;23.372;2022-07-04T13:06:59;94823.06;;;31.21;39.06
6136;BME280;24008;42.664;23.372;2022-07-04T13:09:28;94758.94;;;30.74;38.65